Wright Patterson, Ohio
Current Conditions -  °F | °C
As of 8:58 AM on Friday 24 Oct 2014 (Local Time) from KFFO Reporting Station
Light Fog Light Fog  
Wind Chill: 39°   Ceiling: Unl
Heat Index: 39°   Visibility: 10mi
Dew Point: 37°   Wind: 0mph
Humidity: 94%   Direction: NA
Pressure: 30.13"   Gusts: NA
Location:  39.8169°N, 84.0506°W
Report Text: KFFO 241258Z 00000KT 10SM MIFG FEW210 04/03 A3013 RMK AO2A VIS SW 2 SLP211 FG BANK SW T00370028
Loading
Personal Weather Stations






























Interactive Weather Map
Tropical Storm Tracking
New forecast layout! Learn more

10-Day Weather Forecast

Advertisements
Track Severe Weather on mobile